Spangler, Pennsylvania
Current Conditions -  °F | °C
As of 2:15 AM on Saturday 01 Nov 2014 (Local Time) from KIDI Reporting Station
Haze Haze  
Wind Chill: 36°   Ceiling: 3300
Heat Index: 39°   Visibility: 5mi
Dew Point: 39°   Wind: 5mph
Humidity: 100%   Direction: 30°NNE
Pressure: 29.91"   Gusts: NA
Location:  40.65°N, 78.77°W
Report Text: KIDI 010615Z AUTO 03004KT 5SM BR BKN033 BKN040 OVC065 04/04 A2991 RMK A01
Loading
Personal Weather Stations






























Interactive Weather Map
Tropical Storm Tracking
New forecast layout! Learn more

10-Day Weather Forecast

Advertisements
Track Severe Weather on mobile